Overview Statistics Trail Chart Weather Telemetry Raw packets
 

This is the latest recevied telemetry packets stored in our database for station/object IS0URG-10. If no packets are shown the sender has not sent any telemetry packets the latest 10 day(s).

Telemetry packets is used to share measurements like repeteater parameters, battery voltage, radiation readings (or any other measurements).

<< 1 2 3 4 >>
Time Press* Temp.in* Hum* QNH* Temp.out*
1788607902 1018 hPa 42.9 C deg 22.6 % 1023.9 hPa 0 C deg
1788607899 1018 hPa 42.9 C deg 22.6 % 1023.9 hPa 0 C deg
1788606132 1018.3 hPa 42.9 C deg 22.2 % 1024.1 hPa 0 C deg
1788606084 1018.3 hPa 42.9 C deg 22.2 % 1024.1 hPa 0 C deg
1788604274 1018.7 hPa 41.3 C deg 24.7 % 1024.6 hPa 0 C deg
1788604269 1018.7 hPa 41.3 C deg 24.7 % 1024.6 hPa 0 C deg
1788602491 1019 hPa 38.6 C deg 26.8 % 1024.9 hPa 0 C deg
1788602454 1019 hPa 38.6 C deg 26.8 % 1024.9 hPa 0 C deg
1788600643 1019.2 hPa 38.5 C deg 26.5 % 1025.1 hPa 0 C deg
1788600638 1019.2 hPa 38.5 C deg 26.5 % 1025.1 hPa 0 C deg
1788598914 1019.4 hPa 37.4 C deg 26 % 1025.3 hPa 0 C deg
1788598823 1019.4 hPa 37.4 C deg 26 % 1025.3 hPa 0 C deg
1788597011 1019.2 hPa 37.5 C deg 28.8 % 1025.1 hPa 0 C deg
1788597008 1019.2 hPa 37.5 C deg 28.8 % 1025.1 hPa 0 C deg
1788595196 1019.1 hPa 36.9 C deg 30 % 1025 hPa 0 C deg
1788595193 1019.1 hPa 36.9 C deg 30 % 1025 hPa 0 C deg
1788593380 1019.1 hPa 35.2 C deg 34.3 % 1025.1 hPa 0 C deg
1788593378 1019.1 hPa 35.2 C deg 34.3 % 1025.1 hPa 0 C deg
1788591564 1019.2 hPa 34.2 C deg 41.2 % 1025.2 hPa 0 C deg
1788591563 1019.2 hPa 34.2 C deg 41.2 % 1025.2 hPa 0 C deg
1788589768 1019.2 hPa 28.4 C deg 52.3 % 1025.3 hPa 0 C deg
1788589748 1019.2 hPa 28.4 C deg 52.3 % 1025.3 hPa 0 C deg
1788587957 1018.9 hPa 27 C deg 55.2 % 1025.1 hPa 0 C deg
1788587933 1018.9 hPa 27 C deg 55.2 % 1025.1 hPa 0 C deg
1788586123 1018.8 hPa 26.5 C deg 56.4 % 1024.9 hPa 0 C deg
*Used Equation Coefficients:
Press: 0, 1, 0
Temp.in: 0, 1, 0
Hum: 0, 1, 0
QNH: 0, 1, 0
Temp.out: 0, 1, 0

  • The parameter names for the analog channels will be Value1, Value2, Value3 (up to Value5) if station has not sent a PARAM-packet that specifies the parameter names for each analog channel.
  • Each analog value is a decimal number between 000 and 255 (according to APRS specifications). The receiver use the telemetry equation coefficientsto to restore the original sensor values. If no EQNS-packet with equation coefficients is sent we will show the values as is (this corresponds to the equation coefficients a=0, b=1 and c=0).
    The sent equation coefficients is used in the equation: a * value2 + b * value + c.
  • The units for the analog values will not be shown if station has not sent a UNIT-packet specifying what unit's to use.
  • The parameter names for the digital bits will be Bit1, Bit2, Bit3 (up to Bit8) if station has not sent a PARAM-packet that specifies the parameter names for each digital bit.
  • All bit labels will be named "On" if station has not sent a UNIT-packet that specifies the label of each bit.
  • A bit is considered to be On when the bit is 1 if station has not sent a BITS-packet that specifies another "Bit sense" (a BITS-packet specify the state of the bits that match the BIT labels)